Modesto, CA

8:16 PM PDT on September 21, 2014 (GMT -0700)
Castle | Change Station
CLOSE
Current Station
Airport
Location: Atwater,
Elevation: 187 ft
Nearby Weather Stations

Elev 187 ft 37.38 °N, 120.57 °W | Updated 31 minutes ago

Clear
Clear
75 °F
Feels Like 75 °F
N
9
Wind Variable Wind from NW

Today
High -- | Low -- °F
--% Chance of Precip.
Yesterday
High -- | Low -- °F
Precip. -- in
6:51 AM 7:02 PM
Waning Crescent, 4% visible
Pressure 29.92 in
Visibility 10.0 miles
Clouds Clear
Dew Point 55 °F
Humidity 50%
Rainfall 0.00 in
Snow Depth 0 in , 1 in , 0 in
UV 0 out of 12
Pollen 5.20 out of 12
Ozone Good
PM2.5 Good
Flu Activity Not available.
METAR KMER 220245Z 31008KT 10SM SKC 24/13 A2992

More Conditions Fewer Conditions

Pressure 29.92 in
Visibility 10.0 miles
Clouds Clear
Dew Point 55 °F
Humidity 50%
Rainfall 0.00 in
Snow Depth 0 in , 1 in , 0 in
UV 0 out of 12
Pollen 5.20 out of 12
Ozone Good
PM2.5 Good
Flu Activity Not available.
METAR KMER 220245Z 31008KT 10SM SKC 24/13 A2992

More Conditions Fewer Conditions

10-Day Weather Forecast

Almanac

Astronomy

Sep. 21, 2014 Rise Set
Actual Time 6:51 AM PDT 7:02 PM PDT
Civil Twilight 6:24 AM PDT 7:28 PM PDT
Nautical Twilight 5:54 AM PDT 7:58 PM PDT
Astronomical Twilight 5:23 AM PDT 8:30 PM PDT
Moon 4:31 AM PDT (9/21) 5:39 PM PDT (9/21)
Length of Visible Light 13h 03m
Length of Day
12h 11m
Tomorrow will be 2m 24s shorter.
Waning Crescent, 4% of the Moon is Illuminated
Today
Waning Crescent
Sep 24
New
Oct 1
First Quarter
Oct 8
Full
Oct 15
Last Quarter

Today's Extremes

State Highs State Lows

Community

WunderPhotos

Upload Photos

1,755,371 photos uploaded!

WunderBlogs® & News

Nearby

Air Quality

  Air Quality AQ Index Pollutant
Yesterday Good
OZONE
Yesterday Good
PM2.5
Current Good
OZONE
Current Good
PM2.5
Sunday Good
OZONE
Monday Good
OZONE
Tuesday Good
OZONE
Wednesday Good
OZONE
Thursday Good
OZONE
Friday Good
OZONE

Snow Depth

Station Depth Elevation
Tahoe City Cross 0 in 6750 ft
Leavitt Meadows 1 in 7200 ft
CSS Lab 0 in 6900 ft
Hagan's Meadow 0 in 8000 ft
Summit Meadow 1 in 9122 ft

Earthquake Activity

City Distance Mag. Time & Date
Sonoma, California 89 miles 2.7 1:17 PM PDT
2014-09-21
Cloverdale, California 130 miles 2.5 9:15 PM PDT
2014-09-20
Livermore, California 40 miles 2.6 3:37 AM PDT
2014-09-19
Corcoran, California 133 miles 2.9 3:59 PM PDT
2014-09-18
Minimum magnitude displayed is 2.5.

Coastal Water Temperatures

Place Temperature
No Stations Reporting

Nearby Weather Stations